createdAt,value
2023-01-18T00:01:22.513Z,6.53
2023-01-18T00:03:53.987Z,8.33
2023-01-18T00:06:29.398Z,9.50
2023-01-18T00:09:01.267Z,9.20
2023-01-18T00:11:32.620Z,12.40
2023-01-18T00:14:03.051Z,12.67
2023-01-18T00:16:32.878Z,12.90
2023-01-18T00:19:02.885Z,13.17
2023-01-18T00:21:33.149Z,13.03
2023-01-18T00:24:03.255Z,11.83
2023-01-18T00:26:34.978Z,15.43
2023-01-18T00:29:07.212Z,14.80
2023-01-18T00:31:38.322Z,15.33
2023-01-18T00:34:09.318Z,17.70
2023-01-18T00:36:41.033Z,15.40
2023-01-18T00:39:13.223Z,17.03
2023-01-18T00:42:05.852Z,15.17
2023-01-18T00:44:34.260Z,16.27
2023-01-18T00:47:04.553Z,15.30
2023-01-18T00:49:36.352Z,12.70
2023-01-18T00:52:06.976Z,12.50
2023-01-18T00:54:38.545Z,9.43
2023-01-18T00:57:11.251Z,10.50
2023-01-18T00:59:41.218Z,13.90
2023-01-18T01:02:12.306Z,12.17
2023-01-18T01:05:00.697Z,14.43
2023-01-18T01:07:31.248Z,12.70
2023-01-18T01:10:10.204Z,13.97
2023-01-18T01:12:59.600Z,15.43
2023-01-18T01:15:46.995Z,16.30
2023-01-18T01:18:34.872Z,14.00
2023-01-18T01:21:24.824Z,14.00
2023-01-18T01:24:12.558Z,17.13
2023-01-18T01:26:43.325Z,18.03
2023-01-18T01:29:16.312Z,19.07
2023-01-18T01:31:46.645Z,22.20
2023-01-18T01:34:16.619Z,21.50
2023-01-18T01:36:47.710Z,22.90
2023-01-18T01:39:18.938Z,24.17
2023-01-18T01:41:49.702Z,26.87
2023-01-18T01:44:48.828Z,26.23
2023-01-18T01:47:42.794Z,22.73
2023-01-18T01:50:20.002Z,22.33
2023-01-18T01:52:50.285Z,19.20
2023-01-18T01:55:24.426Z,28.83
2023-01-18T01:57:58.616Z,20.47
2023-01-18T02:00:30.333Z,18.83
2023-01-18T02:03:02.471Z,22.67
2023-01-18T02:05:34.911Z,21.60
2023-01-18T02:08:11.651Z,23.70
2023-01-18T02:10:42.247Z,19.33
2023-01-18T02:13:12.763Z,19.50
2023-01-18T02:15:51.284Z,18.17
2023-01-18T02:18:26.318Z,18.90
2023-01-18T02:21:17.785Z,22.63
2023-01-18T02:24:21.094Z,20.97
2023-01-18T02:26:59.481Z,22.30
2023-01-18T02:30:12.221Z,23.83
2023-01-18T02:32:53.133Z,21.90
2023-01-18T02:35:32.081Z,20.70
2023-01-18T02:38:12.412Z,21.23
2023-01-18T02:40:59.687Z,23.33
2023-01-18T02:43:49.129Z,17.87
2023-01-18T02:46:41.337Z,19.67
2023-01-18T02:49:14.921Z,20.40
2023-01-18T02:51:45.988Z,21.80
2023-01-18T02:54:25.008Z,24.43
2023-01-18T02:56:56.163Z,20.67
2023-01-18T02:59:32.592Z,23.23
2023-01-18T03:02:08.575Z,21.87
2023-01-18T03:04:42.291Z,20.53
2023-01-18T03:07:16.202Z,22.87
2023-01-18T03:09:47.798Z,21.17
2023-01-18T03:12:24.172Z,19.40
2023-01-18T03:15:05.672Z,21.70
2023-01-18T03:17:42.235Z,20.57
2023-01-18T03:20:15.053Z,21.87
2023-01-18T03:23:06.698Z,23.10
2023-01-18T03:25:39.312Z,16.13
2023-01-18T03:28:28.668Z,23.47
2023-01-18T03:31:19.497Z,20.80
2023-01-18T03:33:54.049Z,18.80
2023-01-18T03:36:28.011Z,22.10
2023-01-18T03:39:01.859Z,21.97
2023-01-18T03:41:34.605Z,21.47
2023-01-18T03:44:09.699Z,21.50
2023-01-18T03:46:41.167Z,20.70
2023-01-18T03:49:13.854Z,22.63
2023-01-18T03:51:54.765Z,25.53
2023-01-18T03:54:31.566Z,23.40
2023-01-18T03:57:05.197Z,22.70
2023-01-18T03:59:37.965Z,24.30
2023-01-18T04:02:09.863Z,24.07
2023-01-18T04:04:45.879Z,21.60
2023-01-18T04:07:17.139Z,19.30
2023-01-18T04:09:47.553Z,23.77
2023-01-18T04:12:18.312Z,21.73
2023-01-18T04:14:48.558Z,23.97
2023-01-18T04:17:19.443Z,22.90
2023-01-18T04:19:52.690Z,18.70
2023-01-18T04:22:23.379Z,19.07
2023-01-18T04:24:53.738Z,21.17
2023-01-18T04:27:25.527Z,19.60
2023-01-18T04:29:55.873Z,19.70
2023-01-18T04:32:26.713Z,22.00
2023-01-18T04:34:58.473Z,23.33
2023-01-18T04:37:31.403Z,23.13
2023-01-18T04:40:02.850Z,25.47
2023-01-18T04:42:34.568Z,24.37
2023-01-18T04:45:04.682Z,24.63
2023-01-18T04:47:35.719Z,21.30
2023-01-18T04:50:09.957Z,22.60
2023-01-18T04:52:41.119Z,22.70
2023-01-18T04:55:16.367Z,21.03
2023-01-18T04:57:47.521Z,20.97
2023-01-18T05:00:23.028Z,21.60
2023-01-18T05:02:53.893Z,26.40
2023-01-18T05:05:26.460Z,24.07
2023-01-18T05:07:57.663Z,29.63
2023-01-18T05:10:27.873Z,21.80
2023-01-18T05:12:58.491Z,25.47
2023-01-18T05:15:28.872Z,23.50
2023-01-18T05:17:59.089Z,30.00
2023-01-18T05:20:31.902Z,20.27
2023-01-18T05:23:11.231Z,25.33
2023-01-18T05:25:42.765Z,23.30
2023-01-18T05:28:13.323Z,20.27
2023-01-18T05:30:44.383Z,22.50
2023-01-18T05:33:14.876Z,24.83
2023-01-18T05:35:53.306Z,22.83
2023-01-18T05:38:24.602Z,26.10
2023-01-18T05:40:56.489Z,23.07
2023-01-18T05:43:28.789Z,24.73
2023-01-18T05:45:58.785Z,24.37
2023-01-18T05:48:30.455Z,25.23
2023-01-18T05:51:01.671Z,21.13
2023-01-18T05:53:32.384Z,23.90
2023-01-18T05:56:05.476Z,22.90
2023-01-18T05:58:36.060Z,25.17
2023-01-18T06:01:08.300Z,25.33
2023-01-18T06:03:38.733Z,25.20
2023-01-18T06:06:11.896Z,25.03
2023-01-18T06:08:45.199Z,25.37
2023-01-18T06:11:15.199Z,23.60
2023-01-18T06:13:45.552Z,24.97
2023-01-18T06:16:22.342Z,23.17
2023-01-18T06:18:54.002Z,17.83
2023-01-18T06:21:26.941Z,20.97
2023-01-18T06:23:57.966Z,21.60
2023-01-18T06:26:28.061Z,20.87
2023-01-18T06:28:59.074Z,21.93
2023-01-18T06:31:29.559Z,24.60
2023-01-18T06:33:59.692Z,21.23
2023-01-18T06:36:33.515Z,21.67
2023-01-18T06:39:04.528Z,20.57
2023-01-18T06:41:34.954Z,19.43
2023-01-18T06:44:06.037Z,19.70
2023-01-18T06:46:38.388Z,21.27
2023-01-18T06:49:11.033Z,22.47
2023-01-18T06:51:45.203Z,21.43
2023-01-18T06:54:16.883Z,20.30
2023-01-18T06:56:48.522Z,15.93
2023-01-18T06:59:18.325Z,21.57
2023-01-18T07:01:49.880Z,20.57
2023-01-18T07:04:19.845Z,20.03
2023-01-18T07:06:51.404Z,20.73
2023-01-18T07:09:21.713Z,20.47
2023-01-18T07:11:51.943Z,21.57
2023-01-18T07:14:22.678Z,20.00
2023-01-18T07:16:52.348Z,19.87
2023-01-18T07:19:23.044Z,19.93
2023-01-18T07:21:56.228Z,24.40
2023-01-18T07:24:28.532Z,23.83
2023-01-18T07:26:59.929Z,21.10
2023-01-18T07:29:30.114Z,21.10
2023-01-18T07:32:01.550Z,17.73
2023-01-18T07:34:31.285Z,20.67
2023-01-18T07:37:03.278Z,21.10
2023-01-18T07:39:34.342Z,21.40
2023-01-18T07:42:05.453Z,21.83
2023-01-18T07:44:35.877Z,24.90
2023-01-18T07:47:08.679Z,22.90
2023-01-18T07:49:38.797Z,24.50
2023-01-18T07:52:11.764Z,26.40
2023-01-18T07:54:42.373Z,22.87
2023-01-18T07:57:12.809Z,23.00
2023-01-18T07:59:44.003Z,22.77
2023-01-18T08:02:15.855Z,25.40
2023-01-18T08:04:50.493Z,22.03
2023-01-18T08:07:24.075Z,22.10
2023-01-18T08:09:55.254Z,30.30
2023-01-18T08:12:25.953Z,17.83
2023-01-18T08:14:56.413Z,21.17
2023-01-18T08:17:28.732Z,17.83
2023-01-18T08:19:58.952Z,20.43
2023-01-18T08:22:32.186Z,21.63
2023-01-18T08:25:03.608Z,18.73
2023-01-18T08:27:34.044Z,16.90
2023-01-18T08:30:04.722Z,17.27
2023-01-18T08:32:36.455Z,18.20
2023-01-18T08:35:06.907Z,20.03
2023-01-18T08:37:38.998Z,17.87
2023-01-18T08:40:11.641Z,18.77
2023-01-18T08:42:42.544Z,15.93
2023-01-18T08:45:13.354Z,16.50
2023-01-18T08:47:43.162Z,15.50
2023-01-18T08:50:13.797Z,18.83
2023-01-18T08:52:45.573Z,16.23
2023-01-18T08:55:15.778Z,15.73
2023-01-18T08:57:47.086Z,14.23
2023-01-18T09:00:18.190Z,15.17
2023-01-18T09:02:50.432Z,16.60
2023-01-18T09:05:21.278Z,17.17
2023-01-18T09:07:54.216Z,15.20
2023-01-18T09:10:24.878Z,15.60
2023-01-18T09:12:56.154Z,20.10
2023-01-18T09:15:27.328Z,18.93
2023-01-18T09:17:57.202Z,19.60
2023-01-18T09:20:28.843Z,17.40
2023-01-18T09:23:02.140Z,17.17
2023-01-18T09:25:32.133Z,18.20
2023-01-18T09:28:04.431Z,16.30
2023-01-18T09:30:36.147Z,17.80
2023-01-18T09:33:06.319Z,18.07
2023-01-18T09:35:36.693Z,17.90
2023-01-18T09:38:10.327Z,20.93
2023-01-18T09:40:46.328Z,16.17
2023-01-18T09:43:23.987Z,17.83
2023-01-18T09:45:53.867Z,18.10
2023-01-18T09:48:30.334Z,18.77
2023-01-18T09:51:04.062Z,17.80
2023-01-18T09:53:59.590Z,20.73
2023-01-18T09:56:32.447Z,13.43
2023-01-18T09:59:10.594Z,14.90
2023-01-18T10:01:41.784Z,14.70
2023-01-18T10:04:18.588Z,13.50
2023-01-18T10:06:51.974Z,12.43
2023-01-18T10:09:26.513Z,14.87
2023-01-18T10:12:00.730Z,13.33
2023-01-18T10:14:44.690Z,12.97
2023-01-18T10:17:18.144Z,11.53
2023-01-18T10:19:48.527Z,13.20
2023-01-18T10:22:24.019Z,12.63
2023-01-18T10:25:03.642Z,13.73
2023-01-18T10:27:51.482Z,12.30
2023-01-18T10:30:41.916Z,10.63
2023-01-18T10:33:19.687Z,11.93
2023-01-18T10:35:51.995Z,14.17
2023-01-18T10:38:24.865Z,19.40
2023-01-18T10:41:02.688Z,18.13
2023-01-18T10:43:34.570Z,18.50
2023-01-18T10:46:04.258Z,17.63
2023-01-18T10:48:35.402Z,16.93
2023-01-18T10:51:08.833Z,20.17
2023-01-18T10:53:40.650Z,17.60
2023-01-18T10:56:15.982Z,19.67
2023-01-18T10:58:49.638Z,20.03
2023-01-18T11:01:22.509Z,19.90
2023-01-18T11:03:55.825Z,17.70
2023-01-18T11:06:26.531Z,18.97
2023-01-18T11:08:56.719Z,15.93
2023-01-18T11:11:52.435Z,16.17
2023-01-18T11:14:28.666Z,15.33
2023-01-18T11:17:04.182Z,13.83
2023-01-18T11:19:35.667Z,13.93
2023-01-18T11:22:06.593Z,13.13
2023-01-18T11:24:38.189Z,14.07
2023-01-18T11:27:16.047Z,17.70
2023-01-18T11:29:48.220Z,13.00
2023-01-18T11:32:24.511Z,12.30
2023-01-18T11:34:56.350Z,11.00
2023-01-18T11:37:35.732Z,12.43
2023-01-18T11:40:28.759Z,14.30
2023-01-18T11:43:07.589Z,16.87
2023-01-18T11:45:40.721Z,13.87
2023-01-18T11:48:14.325Z,13.77
2023-01-18T11:50:46.000Z,11.33
2023-01-18T11:53:23.634Z,12.90
2023-01-18T11:56:06.011Z,9.87
2023-01-18T11:58:39.537Z,10.93
2023-01-18T12:01:27.947Z,12.10
2023-01-18T12:04:00.528Z,10.13
2023-01-18T12:06:45.792Z,11.30
2023-01-18T12:09:35.285Z,12.17
2023-01-18T12:12:20.388Z,10.50
2023-01-18T12:15:07.957Z,10.70
2023-01-18T12:17:48.517Z,14.17
2023-01-18T12:20:26.962Z,12.40
2023-01-18T12:23:24.165Z,11.90
2023-01-18T12:26:12.497Z,12.17
2023-01-18T12:28:58.637Z,12.67
2023-01-18T12:31:40.643Z,10.23
2023-01-18T12:34:19.271Z,11.60
2023-01-18T12:37:31.672Z,10.07
2023-01-18T12:40:20.084Z,11.30
2023-01-18T12:42:56.931Z,10.27
2023-01-18T12:45:38.198Z,12.13
2023-01-18T12:48:19.386Z,12.67
2023-01-18T12:50:52.128Z,14.83
2023-01-18T12:53:29.023Z,9.47
2023-01-18T12:55:59.724Z,10.43
2023-01-18T12:58:30.203Z,10.87
2023-01-18T13:01:05.297Z,8.10
2023-01-18T13:03:44.080Z,7.80
2023-01-18T13:06:13.638Z,7.20
2023-01-18T13:08:46.217Z,7.97
2023-01-18T13:11:18.832Z,9.17
2023-01-18T13:13:51.903Z,9.50
2023-01-18T13:16:33.356Z,8.40
2023-01-18T13:19:07.823Z,6.60
2023-01-18T13:21:46.831Z,7.67
2023-01-18T13:24:25.167Z,10.40
2023-01-18T13:26:55.379Z,10.50
2023-01-18T13:29:29.501Z,10.13
2023-01-18T13:31:59.812Z,15.93
2023-01-18T13:34:44.875Z,14.20
2023-01-18T13:37:45.286Z,17.60
2023-01-18T13:40:37.926Z,15.80
2023-01-18T13:43:31.019Z,16.13
2023-01-18T13:46:05.972Z,19.43
2023-01-18T13:48:48.285Z,19.50
2023-01-18T13:51:54.249Z,19.33
2023-01-18T13:55:01.399Z,17.50
2023-01-18T13:57:33.740Z,14.87
2023-01-18T14:00:06.621Z,17.97
2023-01-18T14:02:44.173Z,17.33
2023-01-18T14:05:25.704Z,16.33
2023-01-18T14:08:01.105Z,16.83
2023-01-18T14:10:34.811Z,18.00
2023-01-18T14:13:07.737Z,17.27
2023-01-18T14:15:54.169Z,18.70
2023-01-18T14:18:27.898Z,17.47
2023-01-18T14:21:17.448Z,16.00
2023-01-18T14:24:31.020Z,17.33
2023-01-18T14:27:03.408Z,15.63
2023-01-18T14:29:36.386Z,17.13
2023-01-18T14:32:10.703Z,15.73
2023-01-18T14:34:41.778Z,17.90
2023-01-18T14:37:36.583Z,15.27
2023-01-18T14:40:17.079Z,17.17
2023-01-18T14:42:51.292Z,18.47
2023-01-18T14:45:25.128Z,18.20
2023-01-18T14:47:56.745Z,17.27
2023-01-18T14:50:28.828Z,16.70
2023-01-18T14:52:59.015Z,17.10
2023-01-18T14:55:34.115Z,16.20
2023-01-18T14:58:10.045Z,19.17
2023-01-18T15:00:49.870Z,15.70
2023-01-18T15:03:26.468Z,16.43
2023-01-18T15:06:04.830Z,16.57
2023-01-18T15:08:35.552Z,15.57
2023-01-18T15:11:08.254Z,16.73
2023-01-18T15:13:47.698Z,17.17
2023-01-18T15:16:20.895Z,16.10
2023-01-18T15:18:52.355Z,16.47
2023-01-18T15:21:26.131Z,15.97
2023-01-18T15:24:02.962Z,16.90
2023-01-18T15:26:42.121Z,16.20
2023-01-18T15:29:18.027Z,15.10
2023-01-18T15:31:51.077Z,16.27
2023-01-18T15:34:27.275Z,15.77
2023-01-18T15:36:58.210Z,14.87
2023-01-18T15:39:28.068Z,16.90
2023-01-18T15:42:00.366Z,17.73
2023-01-18T15:44:43.594Z,16.90
2023-01-18T15:47:25.887Z,16.43
2023-01-18T15:49:58.229Z,15.10
2023-01-18T15:52:43.959Z,19.40
2023-01-18T15:55:24.913Z,16.07
2023-01-18T15:58:01.140Z,16.03
2023-01-18T16:00:37.363Z,14.83
2023-01-18T16:03:08.143Z,17.27
2023-01-18T16:05:39.202Z,17.33
2023-01-18T16:08:21.762Z,17.07
2023-01-18T16:10:57.366Z,16.87
2023-01-18T16:13:41.334Z,17.93
2023-01-18T16:16:19.866Z,16.27
2023-01-18T16:19:02.155Z,15.97
2023-01-18T16:21:41.067Z,15.90
2023-01-18T16:24:35.412Z,17.20
2023-01-18T16:27:16.506Z,20.93
2023-01-18T16:29:50.773Z,23.40
2023-01-18T16:32:39.407Z,18.23
2023-01-18T16:35:16.302Z,22.13
2023-01-18T16:37:48.309Z,20.83
2023-01-18T16:40:20.149Z,20.17
2023-01-18T16:43:01.765Z,18.40
2023-01-18T16:45:35.412Z,20.03
2023-01-18T16:48:06.173Z,20.40
2023-01-18T16:50:36.546Z,21.20
2023-01-18T16:53:07.400Z,20.10
2023-01-18T16:55:37.424Z,19.90
2023-01-18T16:58:07.737Z,22.13
2023-01-18T17:00:50.153Z,22.27
2023-01-18T17:03:20.268Z,21.90
2023-01-18T17:05:51.185Z,19.97
2023-01-18T17:08:21.769Z,20.53
2023-01-18T17:10:55.022Z,18.03
2023-01-18T17:13:26.389Z,18.73
2023-01-18T17:15:58.841Z,22.33
2023-01-18T17:18:28.920Z,22.17
2023-01-18T17:20:59.551Z,20.87
2023-01-18T17:23:30.224Z,20.10
2023-01-18T17:26:00.697Z,19.03
2023-01-18T17:28:32.130Z,19.37
2023-01-18T17:31:03.239Z,21.80
2023-01-18T17:33:36.375Z,20.33
2023-01-18T17:36:09.172Z,18.93
2023-01-18T17:38:39.144Z,20.10
2023-01-18T17:41:11.442Z,18.33
2023-01-18T17:43:43.542Z,17.27
2023-01-18T17:46:15.248Z,20.97
2023-01-18T17:48:45.167Z,23.20
2023-01-18T17:51:16.527Z,17.77
2023-01-18T17:53:46.228Z,22.37
2023-01-18T17:56:18.408Z,22.10
2023-01-18T17:58:50.269Z,23.60
2023-01-18T18:01:23.037Z,28.20
2023-01-18T18:03:54.660Z,23.63
2023-01-18T18:06:31.605Z,26.03
2023-01-18T18:09:02.414Z,28.20
2023-01-18T18:11:32.743Z,26.30
2023-01-18T18:14:03.277Z,24.43
2023-01-18T18:16:42.751Z,28.57
2023-01-18T18:19:15.060Z,26.83
2023-01-18T18:21:46.148Z,28.00
2023-01-18T18:24:16.215Z,25.27
2023-01-18T18:26:46.295Z,27.20
2023-01-18T18:29:17.107Z,29.33
2023-01-18T18:31:48.426Z,25.90
2023-01-18T18:34:18.647Z,23.73
2023-01-18T18:36:48.524Z,22.50
2023-01-18T18:39:18.880Z,25.93
2023-01-18T18:41:50.784Z,32.50
2023-01-18T18:44:20.708Z,39.77
2023-01-18T18:46:52.686Z,35.67
2023-01-18T18:49:22.554Z,34.40
2023-01-18T18:51:52.755Z,42.43
2023-01-18T18:54:23.263Z,34.60
2023-01-18T18:56:54.255Z,34.40
2023-01-18T18:59:24.224Z,37.50
2023-01-18T19:01:57.952Z,35.87
2023-01-18T19:04:28.567Z,33.23
2023-01-18T19:06:58.957Z,37.00
2023-01-18T19:09:29.108Z,34.20
2023-01-18T19:11:58.844Z,35.70
2023-01-18T19:14:30.783Z,34.67
2023-01-18T19:17:03.334Z,32.10
2023-01-18T19:19:33.580Z,31.53
2023-01-18T19:22:03.881Z,32.30
2023-01-18T19:24:36.693Z,36.83
2023-01-18T19:27:07.080Z,34.13
2023-01-18T19:29:38.640Z,32.67
2023-01-18T19:32:10.156Z,32.57
2023-01-18T19:34:40.031Z,28.13
2023-01-18T19:37:10.934Z,28.97
2023-01-18T19:39:41.313Z,32.80
2023-01-18T19:42:11.132Z,24.30
2023-01-18T19:44:41.303Z,25.80
2023-01-18T19:47:13.315Z,24.33
2023-01-18T19:49:46.062Z,22.17
2023-01-18T19:52:15.682Z,21.43
2023-01-18T19:54:46.187Z,20.70
2023-01-18T19:57:16.410Z,19.10
2023-01-18T19:59:46.823Z,17.97
2023-01-18T20:02:18.661Z,18.13
2023-01-18T20:04:49.341Z,16.90
2023-01-18T20:07:20.694Z,17.43
2023-01-18T20:09:50.888Z,17.97
2023-01-18T20:12:20.730Z,15.90
2023-01-18T20:14:50.962Z,16.63
2023-01-18T20:17:23.097Z,14.90
2023-01-18T20:19:54.376Z,17.10
2023-01-18T20:22:24.811Z,18.30
2023-01-18T20:24:55.116Z,14.70
2023-01-18T20:27:25.119Z,14.17
2023-01-18T20:29:55.706Z,13.00
2023-01-18T20:32:27.587Z,11.27
2023-01-18T20:34:57.658Z,12.63
2023-01-18T20:37:28.557Z,11.37
2023-01-18T20:39:59.001Z,11.23
2023-01-18T20:42:30.135Z,11.23
2023-01-18T20:45:00.791Z,12.20
2023-01-18T20:47:31.863Z,11.33
2023-01-18T20:50:03.955Z,10.87
2023-01-18T20:52:34.383Z,10.80
2023-01-18T20:55:04.334Z,11.07
2023-01-18T20:57:35.391Z,10.93
2023-01-18T21:00:05.731Z,12.13
2023-01-18T21:02:38.126Z,11.33
2023-01-18T21:05:09.147Z,12.10
2023-01-18T21:07:41.675Z,11.90
2023-01-18T21:10:12.988Z,11.73
2023-01-18T21:12:42.959Z,11.33
2023-01-18T21:15:13.783Z,11.27
2023-01-18T21:17:46.213Z,11.33
2023-01-18T21:20:17.984Z,9.50
2023-01-18T21:22:48.959Z,9.07
2023-01-18T21:25:20.621Z,8.33
2023-01-18T21:27:51.199Z,7.30
2023-01-18T21:30:22.584Z,7.73
2023-01-18T21:32:54.262Z,9.57
2023-01-18T21:35:25.224Z,9.27
2023-01-18T21:37:54.943Z,9.50
2023-01-18T21:40:24.931Z,7.57
2023-01-18T21:43:12.157Z,10.27
2023-01-18T21:45:57.847Z,7.03
2023-01-18T21:48:31.054Z,5.40
2023-01-18T21:51:19.286Z,5.63
2023-01-18T21:54:06.875Z,4.30
2023-01-18T21:56:39.619Z,3.80
2023-01-18T21:59:09.969Z,2.47
2023-01-18T22:01:42.945Z,2.27
2023-01-18T22:04:34.360Z,2.60
2023-01-18T22:07:05.710Z,2.33
2023-01-18T22:09:36.441Z,2.20
2023-01-18T22:12:08.753Z,2.90
2023-01-18T22:14:39.163Z,1.83
2023-01-18T22:17:09.810Z,1.57
2023-01-18T22:19:44.275Z,1.80
2023-01-18T22:22:14.455Z,3.20
2023-01-18T22:24:45.077Z,1.67
2023-01-18T22:27:15.697Z,1.60
2023-01-18T22:29:46.178Z,1.97
2023-01-18T22:32:17.345Z,2.13
2023-01-18T22:34:50.031Z,2.70
2023-01-18T22:37:20.098Z,3.20
2023-01-18T22:39:51.213Z,3.13
2023-01-18T22:42:23.452Z,2.50
2023-01-18T22:44:53.731Z,2.83
2023-01-18T22:47:25.726Z,2.73
2023-01-18T22:49:59.449Z,2.53
2023-01-18T22:52:29.994Z,2.23
2023-01-18T22:55:00.602Z,2.93
2023-01-18T22:57:30.713Z,3.03
2023-01-18T23:00:01.207Z,4.90
2023-01-18T23:02:31.806Z,3.20
2023-01-18T23:05:03.204Z,3.40
2023-01-18T23:07:34.087Z,3.13
2023-01-18T23:10:06.143Z,3.23
2023-01-18T23:12:36.474Z,3.03
2023-01-18T23:15:24.830Z,3.93
2023-01-18T23:17:55.318Z,2.57
2023-01-18T23:20:27.526Z,2.80
2023-01-18T23:22:57.974Z,5.23
2023-01-18T23:25:28.231Z,3.30
2023-01-18T23:27:59.589Z,4.57
2023-01-18T23:30:30.229Z,4.63
2023-01-18T23:33:00.293Z,3.73
2023-01-18T23:35:31.492Z,4.33
2023-01-18T23:38:03.163Z,3.23
2023-01-18T23:40:50.835Z,3.10
2023-01-18T23:43:38.901Z,3.13
2023-01-18T23:46:27.975Z,3.53
2023-01-18T23:49:15.563Z,3.40
2023-01-18T23:52:05.179Z,3.33
2023-01-18T23:54:34.883Z,3.57
2023-01-18T23:57:04.921Z,3.10
2023-01-18T23:59:35.193Z,5.17
